Terminal Aerodrome Forecast
Issued by NWS Pocatello, ID

Home | Current Version | Previous Version | Text Only | Print | Product List | Glossary On
Versions: 1 2 3 4 5 6 7 8 9 10 11 12 13
127
FTUS45 KPIH 281725 AAA
TAFBYI
TAF AMD
KBYI 281725Z 2817/2918 VRB04KT 3SM HZ SKC
     FM282000 29010G15KT 6SM HZ SKC
     FM290200 23007KT 6SM HZ SKC=

USA.gov is the U.S. government's official web portal to all federal, state and local government web resources and services.